Weather History for KVWU - September, 2013

Change the Weather History Date:

Tuesday, September 24, 2013

  Actual Average (KBDE) Record (KBDE)
Temperature  
Mean Temperature 58 °F -  
Max Temperature 68 °F 64 °F 80 °F (1997)
Min Temperature 48 °F 38 °F 25 °F (1951)
Degree Days  
Heating Degree Days 7    
Growing Degree Days 8 (Base 50)    
Moisture  
Dew Point 54 °F    
Average Humidity 81    
Maximum Humidity 100    
Minimum Humidity 68    
Precipitation  
Precipitation 0.00 in - - ()
Sea Level Pressure  
Sea Level Pressure 29.90 in    
Wind  
Wind Speed 6 mph (SSW)    
Max Wind Speed 12 mph    
Max Gust Speed 23 mph    
Visibility 9 miles    
Events Fog    
Averages and records for this station are not official NWS values.
T = Trace of Precipitation, MM = Missing Value Source: NWS Daily Summary

Daily Weather History Graph

Daily Weather History Graph

Search for Another Location

Airport or City:

Trip Planner

Search our weather history database for the weather conditions in past years. The results will help you decide how hot, cold, wet, or windy it might be!

Date:

Astronomy

Sep. 24, 2013 Rise Set
Actual Time 7:07 AM CDT 7:11 PM CDT
Civil Twilight 6:36 AM CDT 7:42 PM CDT
Nautical Twilight 6:00 AM CDT 8:18 PM CDT
Astronomical Twilight 5:22 AM CDT 8:55 PM CDT
Moon 10:05 PM CDT (9/24) 12:46 PM CDT (9/24)
Length of Visible Light 13h 05m
Length of Day
12h 03m
Waning Gibbous, 73% of the Moon is Illuminated
Sep 24
Waning Gibbous
Sep 26
Last Quarter
Oct 4
New
Oct 11
First Quarter
Oct 18
Full

Hourly Weather History & Observations

Time (CDT) Temp. Dew Point Humidity Pressure Visibility Wind Dir Wind Speed Gust Speed Precip Events Conditions
12:05 AM 60.8 °F 51.8 °F 72% 29.84 in 10.0 mi SSE 9.2 mph - N/A   Clear
12:26 AM 60.8 °F 51.8 °F 72% 29.84 in 10.0 mi SSE 9.2 mph 16.1 mph N/A   Clear
12:45 AM 59.0 °F 51.8 °F 77% 29.84 in 10.0 mi SSE 10.4 mph 17.3 mph N/A   Clear
1:05 AM 59.0 °F 51.8 °F 77% 29.84 in 10.0 mi SSE 6.9 mph 16.1 mph N/A   Clear
1:26 AM 59.0 °F 51.8 °F 77% 29.84 in 10.0 mi SSE 11.5 mph 19.6 mph N/A   Clear
1:45 AM 59.0 °F 51.8 °F 77% 29.84 in 10.0 mi SSE 9.2 mph 17.3 mph N/A   Clear
2:05 AM 59.0 °F 51.8 °F 77% 29.85 in 10.0 mi SSE 9.2 mph 23.0 mph N/A   Clear
2:26 AM 59.0 °F 51.8 °F 77% 29.85 in 10.0 mi SSE 8.1 mph - N/A   Clear
2:45 AM 57.2 °F 51.8 °F 82% 29.84 in 10.0 mi SSE 8.1 mph 20.7 mph N/A   Clear
3:05 AM 57.2 °F 51.8 °F 82% 29.84 in 10.0 mi SSE 11.5 mph 17.3 mph N/A   Clear
3:26 AM 57.2 °F 51.8 °F 82% 29.85 in 10.0 mi SSE 9.2 mph 18.4 mph N/A   Clear
3:45 AM 57.2 °F 51.8 °F 82% 29.85 in 10.0 mi SSE 9.2 mph 18.4 mph N/A   Clear
4:05 AM 57.2 °F 51.8 °F 82% 29.86 in 10.0 mi SSE 8.1 mph - N/A   Clear
4:26 AM 57.2 °F 51.8 °F 82% 29.85 in 10.0 mi SSE 8.1 mph - N/A   Clear
4:45 AM 57.2 °F 51.8 °F 82% 29.86 in 10.0 mi SSE 6.9 mph - N/A   Clear
5:05 AM 57.2 °F 51.8 °F 82% 29.86 in 10.0 mi SSE 4.6 mph - N/A   Clear
5:25 AM 55.4 °F 51.8 °F 88% 29.87 in 10.0 mi SSE 8.1 mph - N/A   Clear
5:45 AM 55.4 °F 51.8 °F 88% 29.87 in 10.0 mi SSE 8.1 mph - N/A   Clear
6:05 AM 55.4 °F 51.8 °F 88% - 10.0 mi South 5.8 mph - N/A   Clear
6:25 AM 55.4 °F 51.8 °F 88% 29.88 in 10.0 mi SSE 4.6 mph - N/A   Clear
6:45 AM 55.4 °F 51.8 °F 88% 29.88 in 10.0 mi South 4.6 mph - N/A   Clear
7:05 AM 55.4 °F 51.8 °F 88% 29.88 in 10.0 mi South 3.5 mph - N/A   Clear
7:25 AM 55.4 °F 51.8 °F 88% 29.89 in 10.0 mi SSE 3.5 mph - N/A   Clear
7:45 AM 55.4 °F 51.8 °F 88% 29.90 in 10.0 mi South 4.6 mph - N/A   Clear
8:05 AM 55.4 °F 51.8 °F 88% 29.91 in 10.0 mi South 3.5 mph - N/A   Clear
8:25 AM 57.2 °F 51.8 °F 82% 29.91 in 10.0 mi South 4.6 mph - N/A   Clear
8:45 AM 59.0 °F 53.6 °F 82% 29.91 in 10.0 mi South 5.8 mph - N/A   Clear
9:05 AM 60.8 °F 53.6 °F 77% 29.91 in 10.0 mi South 5.8 mph - N/A   Clear
9:25 AM 64.4 °F 53.6 °F 68% 29.91 in 10.0 mi South 5.8 mph - N/A   Scattered Clouds
9:45 AM 62.6 °F 53.6 °F 72% 29.91 in 10.0 mi SSW 4.6 mph - N/A   Clear
10:05 AM 64.4 °F 55.4 °F 73% 29.92 in 10.0 mi Calm Calm - N/A   Clear
10:25 AM 64.4 °F 55.4 °F 73% 29.92 in 10.0 mi SSW 3.5 mph - N/A   Scattered Clouds
10:45 AM 64.4 °F 55.4 °F 73% 29.93 in 10.0 mi SW 3.5 mph - N/A   Scattered Clouds
11:06 AM 64.4 °F 53.6 °F 68% 29.93 in 10.0 mi WSW 6.9 mph - N/A   Scattered Clouds
11:25 AM 64.4 °F 55.4 °F 73% 29.94 in 10.0 mi SW 6.9 mph - N/A   Scattered Clouds
11:45 AM 64.4 °F 55.4 °F 73% 29.93 in 10.0 mi WSW 3.5 mph - N/A   Mostly Cloudy
12:06 PM 64.4 °F 55.4 °F 73% 29.94 in 10.0 mi WSW 6.9 mph - N/A   Scattered Clouds
12:25 PM 64.4 °F 55.4 °F 73% 29.94 in 10.0 mi SW 6.9 mph - N/A   Scattered Clouds
12:45 PM 64.4 °F 55.4 °F 73% 29.94 in 10.0 mi WSW 5.8 mph - N/A   Scattered Clouds
1:06 PM 64.4 °F 55.4 °F 73% 29.94 in 10.0 mi WSW 4.6 mph - N/A   Scattered Clouds
1:25 PM 66.2 °F 57.2 °F 73% 29.94 in 10.0 mi WSW 6.9 mph - N/A   Scattered Clouds
1:45 PM 66.2 °F 57.2 °F 73% 29.93 in 10.0 mi West 5.8 mph - N/A   Scattered Clouds
2:06 PM 66.2 °F 55.4 °F 68% 29.93 in 10.0 mi West 4.6 mph - N/A   Mostly Cloudy
2:25 PM 66.2 °F 55.4 °F 68% 29.93 in 10.0 mi West 4.6 mph - N/A   Scattered Clouds
2:45 PM 68.0 °F 57.2 °F 68% 29.92 in 10.0 mi WNW 5.8 mph - N/A   Scattered Clouds
3:05 PM 66.2 °F 57.2 °F 73% 29.92 in 10.0 mi West 3.5 mph - N/A   Mostly Cloudy
3:25 PM 64.4 °F 57.2 °F 77% 29.92 in 10.0 mi Calm Calm - N/A   Overcast
3:46 PM 66.2 °F 57.2 °F 73% 29.92 in 10.0 mi West 4.6 mph - N/A   Overcast
4:05 PM 64.4 °F 57.2 °F 77% 29.92 in 10.0 mi West 3.5 mph - N/A   Overcast
4:25 PM 62.6 °F 57.2 °F 82% 29.92 in 10.0 mi West 4.6 mph - N/A   Overcast
4:46 PM 62.6 °F 57.2 °F 82% 29.92 in 10.0 mi Calm Calm - N/A   Overcast
5:05 PM 62.6 °F 57.2 °F 82% 29.91 in 10.0 mi Calm Calm - N/A   Overcast
5:25 PM 64.4 °F 57.2 °F 77% 29.91 in 10.0 mi Calm Calm - N/A   Overcast
5:46 PM 64.4 °F 59.0 °F 83% 29.91 in 10.0 mi Calm Calm - N/A   Overcast
6:05 PM 64.4 °F 59.0 °F 83% 29.91 in 10.0 mi WNW 3.5 mph - N/A   Overcast
6:25 PM 62.6 °F 57.2 °F 82% 29.91 in 10.0 mi Calm Calm - N/A   Overcast
6:45 PM 62.6 °F 57.2 °F 82% 29.91 in 10.0 mi Calm Calm - N/A   Overcast
7:05 PM 60.8 °F 57.2 °F 88% 29.91 in 10.0 mi Calm Calm - N/A   Overcast
7:26 PM 60.8 °F 57.2 °F 88% 29.91 in 10.0 mi Calm Calm - N/A   Overcast
7:45 PM 59.0 °F 55.4 °F 88% 29.92 in 10.0 mi Calm Calm - N/A   Scattered Clouds
8:05 PM 55.4 °F 53.6 °F 94% 29.92 in 10.0 mi Calm Calm - N/A   Clear
8:26 PM 55.4 °F 53.6 °F 94% 29.92 in 0.5 mi Calm Calm - N/A Fog Fog
8:45 PM 53.6 °F 51.8 °F 94% 29.92 in 0.8 mi Calm Calm - N/A   Mist
9:05 PM 51.8 °F 50.0 °F 94% 29.92 in 0.5 mi Calm Calm - N/A Fog Fog
9:26 PM 51.8 °F 50.0 °F 94% 29.92 in 1.2 mi Calm Calm - N/A   Clear
9:45 PM 51.8 °F 50.0 °F 94% 29.92 in 3.0 mi Calm Calm - N/A   Clear
10:05 PM 51.8 °F 50.0 °F 94% 29.92 in 2.0 mi Calm Calm - N/A   Clear
10:25 PM 50.0 °F 48.2 °F 94% 29.92 in 0.5 mi Calm Calm - N/A Fog Fog
10:45 PM 48.2 °F 48.2 °F 100% 29.92 in 3.0 mi Calm Calm - N/A   Clear
11:05 PM 50.0 °F 48.2 °F 94% 29.92 in 7.0 mi Calm Calm - N/A   Clear
11:25 PM 50.0 °F 48.2 °F 94% 29.92 in 7.0 mi SSE 3.5 mph - N/A   Clear
11:45 PM 51.8 °F 50.0 °F 94% 29.93 in 10.0 mi SSE 3.5 mph - N/A   Clear